Time;durP1;ratioP1;P1;durP2;ratioP2;P2;SDS_P1;SDS_P2;PMS_P1;PMS_P2;Temp;Humidity;BMP_temperature;BMP_pressure;BME280_temperature;BME280_humidity;BME280_pressure;Samples;Min_cycle;Max_cycle;Signal;HPM_P1;HPM_P2
2021/10/25 00:04:28;;;;;;;33.10;15.60;;;;;;;2.95;76.66;101091.30;226805;1200;139621;-67
2021/10/25 00:09:35;;;;;;;32.60;15.10;;;;;;;2.98;76.44;101087.70;226446;1199;141220;-66
2021/10/25 00:14:41;;;;;;;34.20;14.00;;;;;;;2.98;76.64;101089.87;226249;1199;140623;-66
2021/10/25 00:19:55;;;;;;;23.70;12.50;;;;;;;2.94;76.67;101084.36;227796;1199;163417;-68
2021/10/25 00:25:20;;;;;;;32.00;13.40;;;;;;;2.92;76.64;101079.90;226731;1200;140971;-66
2021/10/25 00:30:49;;;;;;;27.20;13.30;;;;;;;2.96;76.58;101075.95;227537;1200;141548;-66
2021/10/25 00:35:53;;;;;;;23.80;12.30;;;;;;;3.00;76.88;101069.45;226424;1199;140435;-66
2021/10/25 00:41:20;;;;;;;;;;;;;;;;;;;;;
2021/10/25 00:46:37;;;;;;;18.50;11.40;;;;;;;3.00;76.86;101056.98;226904;1198;140471;-67
2021/10/25 00:51:43;;;;;;;23.40;11.40;;;;;;;3.03;76.67;101058.08;226044;1199;139782;-67
2021/10/25 00:57:18;;;;;;;;;;;;;;;;;;;;;
2021/10/25 01:02:31;;;;;;;19.30;9.00;;;;;;;3.01;76.59;101043.30;226619;1198;139206;-67
2021/10/25 01:08:19;;;;;;;19.20;10.90;;;;;;;3.00;76.69;101042.57;226540;1199;139325;-66
2021/10/25 01:13:28;;;;;;;26.60;11.10;;;;;;;3.02;76.65;101041.80;227010;1198;140450;-67
2021/10/25 01:18:33;;;;;;;16.50;9.70;;;;;;;3.02;76.59;101041.94;227398;1198;140332;-66
2021/10/25 01:23:48;;;;;;;19.70;9.30;;;;;;;3.02;76.59;101036.73;228154;1198;139328;-67
2021/10/25 01:28:59;;;;;;;22.20;10.10;;;;;;;3.03;76.42;101028.58;228057;1199;139942;-66
2021/10/25 01:34:05;;;;;;;18.20;10.90;;;;;;;3.08;76.41;101027.17;226634;1198;140638;-65
2021/10/25 01:39:16;;;;;;;23.90;10.10;;;;;;;3.09;76.20;101020.19;229251;1198;140399;-67
2021/10/25 01:44:20;;;;;;;16.60;10.70;;;;;;;3.05;76.31;101018.56;228659;1199;140134;-69
2021/10/25 01:49:25;;;;;;;23.20;10.90;;;;;;;3.02;76.29;101008.11;229357;1198;139068;-70
2021/10/25 01:55:03;;;;;;;14.90;8.50;;;;;;;2.99;75.79;101004.02;229222;1198;139294;-68
2021/10/25 02:00:08;;;;;;;15.60;9.80;;;;;;;3.00;75.82;100995.66;228589;1199;139728;-68
2021/10/25 02:05:12;;;;;;;17.80;10.20;;;;;;;3.00;75.65;100986.89;228772;1198;139963;-69
2021/10/25 02:10:50;;;;;;;17.30;10.50;;;;;;;2.97;75.82;100980.69;228256;1198;140899;-65
2021/10/25 02:16:18;;;;;;;15.90;9.20;;;;;;;2.93;75.84;100971.92;227343;1198;139324;-65
2021/10/25 02:21:26;;;;;;;21.40;10.50;;;;;;;2.89;75.49;100960.22;227722;1198;139526;-67
2021/10/25 02:27:14;;;;;;;24.20;8.80;;;;;;;2.84;75.68;100956.36;227590;1198;139451;-67
2021/10/25 02:32:52;;;;;;;19.90;8.80;;;;;;;2.80;75.85;100949.91;226157;1198;138861;-67
2021/10/25 02:38:17;;;;;;;16.90;9.40;;;;;;;2.72;75.86;100947.58;227270;1198;140899;-67
2021/10/25 02:44:02;;;;;;;17.20;11.20;;;;;;;2.67;75.72;100937.09;226334;1198;139471;-66
2021/10/25 02:49:29;;;;;;;18.80;11.00;;;;;;;2.67;75.68;100931.77;227139;1199;141265;-67
2021/10/25 02:54:43;;;;;;;16.40;9.30;;;;;;;2.60;75.76;100926.81;226739;1201;139807;-67
2021/10/25 02:59:49;;;;;;;15.20;8.40;;;;;;;2.57;75.77;100921.06;226127;1202;138805;-66
2021/10/25 03:04:57;;;;;;;15.30;8.60;;;;;;;2.53;75.93;100916.88;226526;1201;140136;-65
2021/10/25 03:10:25;;;;;;;21.50;10.10;;;;;;;2.56;75.68;100914.41;226158;1201;139816;-65
2021/10/25 03:15:28;;;;;;;15.50;8.80;;;;;;;2.58;75.69;100915.29;226720;1202;140326;-65
2021/10/25 03:20:45;;;;;;;18.90;9.60;;;;;;;2.59;76.01;100920.83;227715;1201;140690;-66
2021/10/25 03:26:06;;;;;;;20.40;9.40;;;;;;;2.59;75.83;100927.80;227555;1201;139938;-65
2021/10/25 03:31:17;;;;;;;18.10;11.50;;;;;;;2.68;75.95;100927.46;226754;1201;140628;-65
2021/10/25 03:36:32;;;;;;;12.10;8.00;;;;;;;2.73;75.90;100925.92;227931;1198;223281;-66
2021/10/25 03:42:15;;;;;;;14.90;8.70;;;;;;;2.74;75.77;100923.86;228819;1198;139537;-66
2021/10/25 03:47:32;;;;;;;19.20;10.20;;;;;;;2.77;75.83;100920.30;228913;1198;139703;-68
2021/10/25 03:52:58;;;;;;;21.60;11.50;;;;;;;2.83;75.58;100916.13;229085;1200;139929;-68
2021/10/25 04:25:34;;;;;;;21.10;11.00;;;;;;;2.42;75.02;100883.23;227615;1198;141042;-65
2021/10/25 04:30:39;;;;;;;26.60;11.50;;;;;;;2.37;75.22;100879.02;226845;1198;140861;-66
2021/10/25 04:35:51;;;;;;;23.90;11.60;;;;;;;2.33;75.34;100869.42;226216;1198;141327;-64
2021/10/25 04:41:16;;;;;;;21.50;10.50;;;;;;;2.34;75.32;100858.60;226861;1198;140444;-66
2021/10/25 04:46:22;;;;;;;20.80;11.30;;;;;;;2.35;75.33;100857.13;227751;1198;140038;-67
2021/10/25 04:51:31;;;;;;;25.50;14.40;;;;;;;2.31;75.63;100856.25;227256;1198;140056;-66
2021/10/25 04:56:36;;;;;;;28.60;15.00;;;;;;;2.31;75.57;100855.59;226525;1200;140670;-65
2021/10/25 05:01:57;;;;;;;26.50;12.60;;;;;;;2.35;75.79;100846.28;226701;1198;140269;-66
2021/10/25 05:07:11;;;;;;;21.30;13.60;;;;;;;2.39;75.76;100846.21;226905;1199;141463;-66
2021/10/25 05:12:35;;;;;;;29.40;15.10;;;;;;;2.41;75.70;100845.46;226248;1199;162528;-66
2021/10/25 05:18:04;;;;;;;26.30;13.80;;;;;;;2.41;75.85;100843.23;227659;1198;139211;-66
2021/10/25 05:23:37;;;;;;;;;;;;;;;;;;;;;
2021/10/25 05:28:43;;;;;;;25.50;12.80;;;;;;;2.47;75.66;100836.76;227853;1198;139966;-69
2021/10/25 05:34:22;;;;;;;34.20;14.40;;;;;;;2.54;75.51;100827.63;226727;1198;141962;-71
2021/10/25 05:39:59;;;;;;;17.90;12.90;;;;;;;2.57;75.69;100831.40;226420;1185;140003;-65
2021/10/25 05:45:16;;;;;;;23.60;13.10;;;;;;;2.58;75.78;100829.34;227342;1199;140818;-68
2021/10/25 05:50:40;;;;;;;26.70;11.50;;;;;;;2.65;75.34;100824.25;226845;1200;140345;-64
2021/10/25 05:56:22;;;;;;;19.20;12.00;;;;;;;2.77;75.46;100817.94;228926;1199;139683;-67
2021/10/25 06:01:45;;;;;;;19.50;12.90;;;;;;;2.86;75.36;100819.04;228983;1199;139419;-69
2021/10/25 06:06:54;;;;;;;22.40;12.50;;;;;;;2.97;75.44;100813.83;228785;1200;139352;-67
2021/10/25 06:12:01;;;;;;;26.90;14.20;;;;;;;3.06;75.25;100811.87;227617;1199;141578;-67
2021/10/25 06:17:39;;;;;;;24.90;15.20;;;;;;;3.18;75.04;100813.85;227614;1200;141283;-66
2021/10/25 06:22:39;;;;;;;17.60;13.10;;;;;;;3.28;75.11;100813.09;228014;1200;140986;-67
2021/10/25 06:28:12;;;;;;;25.80;14.20;;;;;;;3.37;75.15;100815.80;227539;1200;139528;-67
2021/10/25 06:33:35;;;;;;;;;;;;;;;;;;;;;
2021/10/25 06:38:50;;;;;;;22.70;13.60;;;;;;;3.61;74.99;100803.59;227927;1199;141716;-67
2021/10/25 06:44:20;;;;;;;;;;;;;;;;;;;;;
2021/10/25 06:49:28;;;;;;;26.10;13.60;;;;;;;3.88;74.76;100802.61;227995;1200;140950;-67
2021/10/25 06:54:34;;;;;;;25.10;13.60;;;;;;;3.95;74.66;100810.14;227617;1199;205201;-67
2021/10/25 06:59:40;;;;;;;24.80;13.20;;;;;;;4.05;74.42;100803.91;226724;1200;140451;-66
2021/10/25 07:04:55;;;;;;;23.90;15.00;;;;;;;4.19;74.20;100804.38;227670;1200;139812;-66
2021/10/25 07:10:13;;;;;;;23.40;13.20;;;;;;;4.28;74.32;100810.04;227428;1199;205362;-65
2021/10/25 07:15:21;;;;;;;24.20;12.90;;;;;;;4.38;74.22;100809.77;226661;1200;140635;-64
2021/10/25 08:20:23;;;;;;;13.70;8.00;;;;;;;6.76;71.22;100771.92;227033;1200;141068;-69
2021/10/25 08:25:28;;;;;;;20.20;9.70;;;;;;;6.98;71.35;100769.92;226735;1200;139734;-71
2021/10/25 08:30:42;;;;;;;9.60;5.90;;;;;;;7.22;71.14;100755.54;227824;1200;162029;-70
2021/10/25 08:35:56;;;;;;;17.00;8.30;;;;;;;7.45;70.58;100745.57;227231;1193;139597;-69
2021/10/25 08:42:01;;;;;;;;;;;;;;;;;;;;;
2021/10/25 08:46:58;;;;;;;11.50;6.90;;;;;;;8.03;70.32;100727.67;227124;1200;139840;-73
2021/10/25 08:52:06;;;;;;;12.70;8.10;;;;;;;8.32;70.07;100728.23;226666;1198;139389;-72
2021/10/25 08:57:27;;;;;;;6.10;4.00;;;;;;;8.55;69.50;100723.64;226117;1200;141354;-66
2021/10/25 09:02:42;;;;;;;10.30;5.50;;;;;;;8.74;68.82;100722.77;227616;1198;140615;-68
2021/10/25 09:07:58;;;;;;;7.00;4.20;;;;;;;8.93;68.27;100725.59;226353;1200;140700;-70
2021/10/25 09:13:48;;;;;;;14.50;5.50;;;;;;;9.09;67.45;100728.30;226078;1198;140002;-69
2021/10/25 09:19:03;;;;;;;;;;;;;;;;;;;;;
2021/10/25 09:24:25;;;;;;;9.10;4.00;;;;;;;9.41;66.71;100709.66;226221;1198;139357;-67
2021/10/25 09:30:03;;;;;;;;;;;;;;;;;;;;;
2021/10/25 09:35:24;;;;;;;9.30;3.90;;;;;;;9.74;65.68;100708.73;226849;1198;138605;-67
2021/10/25 09:41:03;;;;;;;5.50;4.90;;;;;;;9.93;65.18;100702.23;227439;1198;139531;-67
2021/10/25 09:51:27;;;;;;;8.30;4.30;;;;;;;10.38;63.91;100697.37;228342;1198;140513;-68
2021/10/25 09:57:39;;;;;;;6.60;3.10;;;;;;;10.53;62.96;100695.06;229063;1198;139667;-68
2021/10/25 10:02:53;;;;;;;8.90;3.60;;;;;;;10.71;62.59;100692.89;229185;1199;138962;-68
2021/10/25 10:08:08;;;;;;;5.20;3.40;;;;;;;10.96;62.32;100689.94;227687;1199;139319;-68
2021/10/25 10:13:26;;;;;;;4.50;3.40;;;;;;;11.21;61.66;100680.75;229309;1198;139528;-69
2021/10/25 10:18:36;;;;;;;8.10;3.40;;;;;;;11.40;60.76;100676.09;229306;1198;140894;-69
2021/10/25 10:24:20;;;;;;;;;;;;;;;;;;;;;
2021/10/25 10:29:41;;;;;;;7.50;3.80;;;;;;;11.81;59.59;100664.73;226655;1199;139582;-67
2021/10/25 10:35:29;;;;;;;6.50;4.60;;;;;;;12.00;59.38;100668.11;226295;1198;142602;-69
2021/10/25 10:41:22;;;;;;;4.80;3.70;;;;;;;12.20;58.88;100668.06;227410;1198;247660;-68
2021/10/25 10:47:02;;;;;;;13.50;5.00;;;;;;;12.39;58.11;100657.02;227258;1198;139178;-68
2021/10/25 10:52:55;;;;;;;;;;;;;;;;;;;;;
2021/10/25 11:04:20;;;;;;;;;;;;;;;;;;;;;
2021/10/25 11:10:11;;;;;;;7.10;3.80;;;;;;;12.92;55.91;100629.40;226984;1198;140535;-68
2021/10/25 11:21:49;;;;;;;;;;;;;;;;;;;;;
2021/10/25 11:27:31;;;;;;;9.30;4.70;;;;;;;13.13;55.26;100622.98;226327;1198;140441;-69
2021/10/25 11:32:47;;;;;;;9.10;5.10;;;;;;;13.27;55.04;100619.85;226193;1198;139873;-68
2021/10/25 11:38:05;;;;;;;7.80;4.90;;;;;;;13.37;54.75;100608.60;228107;1198;139128;-68
2021/10/25 11:43:45;;;;;;;7.30;5.50;;;;;;;13.46;54.36;100606.24;226722;1198;140015;-68
2021/10/25 11:49:02;;;;;;;11.70;4.80;;;;;;;13.55;54.20;100599.70;227474;1198;139131;-68
2021/10/25 11:55:15;;;;;;;;;;;;;;;;;;;;;
2021/10/25 12:00:38;;;;;;;8.60;5.20;;;;;;;13.74;53.51;100595.42;229059;1198;141160;-68
2021/10/25 12:06:37;;;;;;;;;;;;;;;;;;;;;
2021/10/25 12:16:53;;;;;;;6.50;5.70;;;;;;;13.76;52.69;100588.44;229177;1198;139810;-68
2021/10/25 12:22:39;;;;;;;;;;;;;;;;;;;;;
2021/10/25 12:28:19;;;;;;;;;;;;;;;;;;;;;
2021/10/25 12:33:51;;;;;;;;;;;;;;;;;;;;;
2021/10/25 12:39:00;;;;;;;8.40;5.70;;;;;;;13.90;52.18;100561.29;226219;1199;140304;-68
2021/10/25 12:44:43;;;;;;;;;;;;;;;;;;;;;
2021/10/25 12:50:52;;;;;;;8.90;4.80;;;;;;;13.89;51.51;100544.00;227088;1198;139408;-69
2021/10/25 12:56:25;;;;;;;8.20;5.10;;;;;;;13.88;51.61;100540.51;226661;1198;140600;-68
2021/10/25 13:01:58;;;;;;;6.70;4.00;;;;;;;13.91;51.20;100534.08;226157;1199;140429;-68
2021/10/25 13:07:14;;;;;;;2.80;2.20;;;;;;;13.86;51.07;100522.98;226687;1198;139647;-68
2021/10/25 13:13:10;;;;;;;5.70;3.30;;;;;;;13.83;50.76;100518.30;226550;1198;140958;-68
2021/10/25 13:18:20;;;;;;;9.50;4.30;;;;;;;13.78;50.45;100515.64;226108;1198;140224;-68
2021/10/25 13:23:38;;;;;;;;;;;;;;;;;;;;;
2021/10/25 13:29:06;;;;;;;7.90;4.30;;;;;;;13.66;50.11;100509.78;226208;1198;140171;-69
2021/10/25 13:34:30;;;;;;;6.90;4.40;;;;;;;13.59;50.20;100508.48;226073;1198;140986;-69
2021/10/25 13:39:59;;;;;;;6.90;3.60;;;;;;;13.54;50.16;100502.87;227377;1198;139881;-68
2021/10/25 13:45:11;;;;;;;6.50;3.80;;;;;;;13.45;50.10;100504.08;226032;1199;140477;-69
2021/10/25 13:50:17;;;;;;;4.10;2.60;;;;;;;13.43;49.99;100498.29;226313;1198;140869;-69
2021/10/25 13:56:08;;;;;;;4.80;3.50;;;;;;;13.36;50.08;100493.59;228366;1198;139545;-68
2021/10/25 14:01:48;;;;;;;;;;;;;;;;;;;;;
2021/10/25 14:06:59;;;;;;;5.00;3.10;;;;;;;13.10;49.68;100486.70;227202;1198;140137;-67
2021/10/25 14:12:08;;;;;;;7.10;3.60;;;;;;;12.99;50.00;100488.04;226622;1198;140623;-68
2021/10/25 14:17:13;;;;;;;11.20;5.50;;;;;;;12.87;49.99;100484.45;229036;1198;139956;-68
2021/10/25 14:23:00;;;;;;;7.90;3.80;;;;;;;12.69;49.93;100476.35;228979;1198;139320;-69
2021/10/25 14:28:07;;;;;;;6.90;3.80;;;;;;;12.40;50.07;100468.91;228951;1200;140181;-68
2021/10/25 14:33:52;;;;;;;;;;;;;;;;;;;;;
2021/10/25 14:44:37;;;;;;;6.20;4.20;;;;;;;11.83;50.67;100466.73;226796;1198;140422;-67
2021/10/25 14:55:55;;;;;;;;;;;;;;;;;;;;;
2021/10/25 15:01:08;;;;;;;;;;;;;;;11.28;51.43;100450.71;226203;1200;140454;-68
2021/10/25 15:06:45;;;;;;;;;;;;;;;;;;;;;
2021/10/25 15:11:56;;;;;;;6.70;5.00;;;;;;;10.88;52.06;100440.15;226004;1200;140083;-68
2021/10/25 15:17:30;;;;;;;9.20;5.20;;;;;;;10.69;52.30;100441.70;226053;1199;140968;-69
2021/10/25 15:22:42;;;;;;;13.10;5.80;;;;;;;10.48;52.71;100439.63;227082;1198;142176;-66
2021/10/25 15:27:54;;;;;;;10.00;5.60;;;;;;;10.27;53.02;100433.75;226098;1193;140459;-67
2021/10/25 15:33:14;;;;;;;11.20;6.50;;;;;;;10.07;53.18;100433.11;226157;1198;142959;-68
2021/10/25 15:38:18;;;;;;;10.60;6.60;;;;;;;9.90;53.39;100427.03;226059;1198;142276;-68
2021/10/25 15:43:25;;;;;;;12.30;7.60;;;;;;;9.76;53.45;100425.59;227058;1199;139838;-68
2021/10/25 15:49:03;;;;;;;;;;;;;;;;;;;;;
2021/10/25 15:54:09;;;;;;;;;;;;;;;9.50;53.95;100425.00;227669;1200;140796;-67
2021/10/25 15:59:16;;;;;;;17.90;7.40;;;;;;;9.36;54.16;100428.91;227586;1198;126827;-68
2021/10/25 16:04:59;;;;;;;;;;;;;;;;;;;;;
2021/10/25 16:10:14;;;;;;;13.90;6.80;;;;;;;9.06;54.51;100419.16;228062;1198;139606;-69
2021/10/25 16:15:59;;;;;;;15.20;7.50;;;;;;;8.88;54.66;100417.97;228923;1198;140734;-69
2021/10/25 16:21:18;;;;;;;12.20;7.20;;;;;;;8.75;54.88;100418.72;228694;1198;140058;-68
2021/10/25 16:26:24;;;;;;;13.50;7.40;;;;;;;8.63;54.99;100423.83;229020;1198;141117;-68
2021/10/25 16:31:29;;;;;;;19.60;8.80;;;;;;;8.56;55.40;100427.56;229066;1198;139868;-69
2021/10/25 16:36:34;;;;;;;11.80;6.70;;;;;;;8.48;55.30;100426.55;229012;1198;140252;-68
2021/10/25 16:41:38;;;;;;;16.90;8.70;;;;;;;8.39;55.59;100425.64;228217;1200;139688;-68
2021/10/25 16:47:08;;;;;;;13.90;7.80;;;;;;;8.30;55.82;100425.23;226487;1198;139060;-68
2021/10/25 17:04:05;;;;;;;22.50;11.30;;;;;;;7.94;56.55;100416.39;226443;1198;140460;-66
2021/10/25 17:09:26;;;;;;;18.80;11.00;;;;;;;7.74;57.00;100423.48;226179;1200;140433;-67
2021/10/25 17:14:46;;;;;;;;;;;;;;;;;;;;;
2021/10/25 17:20:07;;;;;;;30.70;15.30;;;;;;;7.39;58.19;100422.27;227443;1198;139930;-67
2021/10/25 17:25:51;;;;;;;35.40;16.90;;;;;;;7.25;58.27;100416.88;227638;1199;139492;-67
2021/10/25 17:31:13;;;;;;;46.80;22.90;;;;;;;7.10;58.80;100410.34;227378;1198;140323;-67
2021/10/25 17:36:20;;;;;;;44.60;23.30;;;;;;;6.96;59.03;100408.43;227934;1200;139653;-67
2021/10/25 17:41:34;;;;;;;37.20;16.20;;;;;;;6.85;59.13;100406.23;227784;1198;141126;-68
2021/10/25 17:46:39;;;;;;;22.90;13.60;;;;;;;6.78;59.07;100398.31;226264;1200;140001;-66
2021/10/25 17:51:51;;;;;;;27.00;14.20;;;;;;;6.75;59.21;100394.95;227814;1199;139059;-65
2021/10/25 17:56:58;;;;;;;24.60;14.10;;;;;;;6.78;59.52;100394.68;227842;1199;139700;-67
2021/10/25 18:02:20;;;;;;;23.10;13.40;;;;;;;6.81;59.61;100384.39;227418;1199;141002;-66
2021/10/25 18:07:43;;;;;;;;;;;;;;;;;;;;;
2021/10/25 18:12:49;;;;;;;23.60;12.10;;;;;;;6.84;59.46;100370.19;228388;1199;139587;-67
2021/10/25 18:17:53;;;;;;;23.00;12.20;;;;;;;6.85;59.64;100369.05;227827;1199;140132;-67
2021/10/25 18:22:57;;;;;;;28.50;13.60;;;;;;;6.86;59.63;100375.61;229237;1199;140066;-67
2021/10/25 18:28:06;;;;;;;22.90;11.70;;;;;;;6.87;59.88;100378.64;228710;1198;139966;-68
2021/10/25 18:33:47;;;;;;;26.40;12.90;;;;;;;6.87;59.74;100378.16;228922;1198;140361;-68
2021/10/25 18:39:37;;;;;;;27.50;11.90;;;;;;;6.85;60.12;100378.27;227339;1198;139439;-67
2021/10/25 18:45:10;;;;;;;22.50;11.80;;;;;;;6.83;59.89;100374.34;226329;1200;139601;-66
2021/10/25 18:50:36;;;;;;;;;;;;;;;;;;;;;
2021/10/25 18:55:45;;;;;;;21.40;12.60;;;;;;;6.76;59.88;100359.41;226053;1200;140290;-67
2021/10/25 19:01:15;;;;;;;26.10;15.10;;;;;;;6.74;59.84;100357.69;225865;1198;141220;-67
2021/10/25 19:06:19;;;;;;;19.90;10.80;;;;;;;6.72;60.26;100360.09;227222;1198;139407;-66
2021/10/25 19:11:59;;;;;;;24.90;13.60;;;;;;;6.69;60.26;100359.63;226446;1198;139157;-67
2021/10/25 19:17:25;;;;;;;17.70;8.90;;;;;;;6.67;60.00;100356.52;227772;1200;140074;-69
2021/10/25 19:23:19;;;;;;;23.00;12.90;;;;;;;6.63;59.96;100350.14;226817;1200;139094;-67
2021/10/25 19:28:54;;;;;;;31.60;12.20;;;;;;;6.59;59.94;100347.05;227352;1199;139453;-66
2021/10/25 19:34:48;;;;;;;22.40;12.10;;;;;;;6.58;59.72;100350.05;226425;1200;139766;-67
2021/10/25 19:39:58;;;;;;;18.10;12.20;;;;;;;6.55;60.01;100346.33;227051;1198;139411;-67
2021/10/25 19:45:06;;;;;;;22.70;12.00;;;;;;;6.50;59.88;100338.91;226217;1198;140680;-66
2021/10/25 19:50:55;;;;;;;;;;;;;;;;;;;;;
2021/10/25 19:56:03;;;;;;;;;;;;;;;6.36;60.04;100340.98;226179;1198;140007;-66
2021/10/25 20:01:11;;;;;;;24.80;12.80;;;;;;;6.26;60.38;100343.34;227051;1200;127699;-67
2021/10/25 20:06:29;;;;;;;19.80;10.80;;;;;;;6.18;60.10;100338.50;227230;1198;139636;-67
2021/10/25 20:11:33;;;;;;;18.00;12.90;;;;;;;6.12;60.56;100340.53;227225;1199;139216;-65
2021/10/25 20:16:37;;;;;;;20.60;11.30;;;;;;;6.05;60.35;100341.59;229176;1198;141413;-65
2021/10/25 20:21:49;;;;;;;22.10;11.00;;;;;;;6.01;60.46;100340.49;228327;1198;139843;-66
2021/10/25 20:27:34;;;;;;;14.60;9.90;;;;;;;5.97;60.58;100337.80;229028;1198;139757;-68
2021/10/25 20:33:08;;;;;;;18.10;8.20;;;;;;;5.93;60.55;100341.63;229218;1198;139968;-66
2021/10/25 20:38:50;;;;;;;30.50;18.80;;;;;;;5.95;60.73;100345.32;229080;1198;139292;-69
2021/10/25 20:43:53;;;;;;;11.80;8.60;;;;;;;5.97;60.57;100346.39;228889;1199;140322;-72
2021/10/25 20:49:17;;;;;;;15.30;9.90;;;;;;;6.02;60.48;100339.08;228313;1198;139342;-70
2021/10/25 20:54:44;;;;;;;22.90;11.30;;;;;;;6.13;60.45;100345.47;228346;1198;140729;-71
2021/10/25 21:00:01;;;;;;;;;;;;;;;;;;;;;
2021/10/25 21:05:13;;;;;;;17.20;7.90;;;;;;;6.25;60.25;100349.07;226654;1200;142833;-68
2021/10/25 21:10:32;;;;;;;18.80;9.40;;;;;;;6.22;60.24;100353.33;227059;1198;139987;-67
2021/10/25 21:15:45;;;;;;;;;;;;;;;6.19;60.46;100357.09;227419;1198;140208;-68
2021/10/25 21:21:11;;;;;;;;;;;;;;;;;;;;;
2021/10/25 21:26:19;;;;;;;12.80;7.20;;;;;;;6.14;60.17;100342.34;227525;1198;141017;-68
2021/10/25 21:31:32;;;;;;;;;;;;;;;6.11;60.34;100342.05;228134;1199;138629;-67
2021/10/25 21:36:40;;;;;;;11.20;5.80;;;;;;;6.02;60.56;100340.99;228077;1199;127172;-68
2021/10/25 21:41:49;;;;;;;14.40;7.00;;;;;;;5.98;60.31;100339.38;227288;1200;140349;-69
2021/10/25 21:47:01;;;;;;;18.60;8.90;;;;;;;5.93;60.23;100337.96;226177;1200;139381;-65
2021/10/25 21:52:06;;;;;;;11.30;5.70;;;;;;;5.87;60.36;100339.15;226643;1198;138985;-68
2021/10/25 21:57:43;;;;;;;10.40;6.60;;;;;;;5.82;60.36;100340.88;228241;1199;139168;-69
2021/10/25 22:02:48;;;;;;;13.20;7.50;;;;;;;5.78;60.13;100338.91;227132;1198;139280;-67
2021/10/25 22:07:52;;;;;;;12.10;7.10;;;;;;;5.77;60.59;100342.56;228030;1198;140590;-69
2021/10/25 22:12:56;;;;;;;25.60;7.20;;;;;;;5.74;60.73;100340.45;228492;1198;139175;-68
2021/10/25 22:18:01;;;;;;;16.80;7.10;;;;;;;5.76;60.81;100341.98;228644;1198;140811;-69
2021/10/25 22:23:08;;;;;;;14.10;5.80;;;;;;;5.79;60.50;100345.87;227150;1198;139973;-70
2021/10/25 22:28:26;;;;;;;;;;;;;;;5.81;60.99;100342.17;227659;1198;150361;-68
2021/10/25 22:33:54;;;;;;;10.90;6.50;;;;;;;5.78;61.04;100343.46;228455;1198;126633;-71
2021/10/25 22:39:04;;;;;;;18.10;8.70;;;;;;;5.79;60.76;100343.56;228659;1198;139770;-68
2021/10/25 22:44:09;;;;;;;10.60;5.30;;;;;;;5.81;60.86;100338.72;229118;1199;139554;-68
2021/10/25 22:49:55;;;;;;;14.40;6.30;;;;;;;5.83;61.02;100335.03;227028;1198;139271;-68
2021/10/25 22:55:00;;;;;;;12.60;6.30;;;;;;;5.91;61.01;100333.02;228621;1198;140528;-68
2021/10/25 23:00:06;;;;;;;11.40;6.30;;;;;;;5.96;60.98;100332.75;228650;1191;139700;-69
2021/10/25 23:05:43;;;;;;;15.10;6.30;;;;;;;5.98;60.97;100331.30;227821;1198;139368;-70
2021/10/25 23:10:50;;;;;;;11.60;5.80;;;;;;;5.96;60.89;100331.01;227789;1198;140309;-71
2021/10/25 23:16:05;;;;;;;10.20;5.90;;;;;;;5.93;61.00;100324.73;227248;1198;139379;-66
2021/10/25 23:21:20;;;;;;;11.60;6.00;;;;;;;5.87;61.17;100323.44;227663;1198;139363;-67
2021/10/25 23:26:45;;;;;;;6.40;5.60;;;;;;;5.81;61.11;100331.64;227201;1200;139469;-69
2021/10/25 23:32:17;;;;;;;;;;;;;;;;;;;;;
2021/10/25 23:38:02;;;;;;;;;;;;;;;;;;;;;
2021/10/25 23:43:24;;;;;;;8.40;4.00;;;;;;;5.55;61.51;100333.56;226350;1200;138830;-68
2021/10/25 23:48:36;;;;;;;10.20;6.50;;;;;;;5.47;61.79;100330.70;226330;1200;230014;-68
2021/10/25 23:54:20;;;;;;;;;;;;;;;;;;;;;
2021/10/25 23:59:24;;;;;;;9.90;5.00;;;;;;;5.36;61.97;100342.15;226980;1198;139483;-71
